Hub


Voltar

 INFORMAÇÕES METEOROLÓGICAS

METAR FOR PASD


ADDS - METARS form results

(0836 UTC 25 March 2019)
Data provider http://aviationweather.gov/metar/data/
 
METAR text: PASD 250819Z AUTO 15010KT 4SM -RA BR SCT005 BKN016 OVC037 06/04 A3003 RMK AO2 PNO $
Conditions at: PASD (SAND POINT , AK, US) observed 0819 UTC 25 March 2019
Temperature: 6.0°C (43°F)
Dewpoint: 4.0°C (39°F) [RH = 87%]
Pressure (altimeter): 30.03 inches Hg (1017.0 mb)
Winds: from the SSE (150 degrees) at 12 MPH (10 knots; 5.1 m/s)
Visibility: 4 miles ( 6 km)
Ceiling: 1600 feet AGL
Clouds: scattered clouds at 500 feet AGL
broken clouds at 1600 feet AGL
overcast cloud deck at 3700 feet AGL
Weather: -RA BR  (light rain, mist)
SOME DATA ABOVE MAY BE INACCURATE!!!
"$" is an indication the sensor requires maintenance

METAR text: PASD 250756Z AUTO 15009KT 5SM -RA BR BKN005 OVC010 06/04 A3003 RMK AO2 SLP171 T00560044 PNO $
Conditions at: PASD (SAND POINT , AK, US) observed 0756 UTC 25 March 2019
Temperature: 5.6°C (42°F)
Dewpoint: 4.4°C (40°F) [RH = 92%]
Pressure (altimeter): 30.03 inches Hg (1017.0 mb)
[Sea-level pressure: 1017.1 mb]
Winds: from the SSE (150 degrees) at 10 MPH (9 knots; 4.6 m/s)
Visibility: 5 miles ( 8 km)
Ceiling: 500 feet AGL
Clouds: broken clouds at 500 feet AGL
overcast cloud deck at 1000 feet AGL
Weather: -RA BR  (light rain, mist)
SOME DATA ABOVE MAY BE INACCURATE!!!
"$" is an indication the sensor requires maintenance

METAR text: PASD 250747Z AUTO 15008KT 6SM -RA BR OVC005 05/04 A3003 RMK AO2 CIG 003V009 PNO $
Conditions at: PASD (SAND POINT , AK, US) observed 0747 UTC 25 March 2019
Temperature: 5.0°C (41°F)
Dewpoint: 4.0°C (39°F) [RH = 93%]
Pressure (altimeter): 30.03 inches Hg (1017.0 mb)
Winds: from the SSE (150 degrees) at 9 MPH (8 knots; 4.1 m/s)
Visibility: 6 miles (10 km)
Ceiling: 500 feet AGL
Clouds: overcast cloud deck at 500 feet AGL
Weather: -RA BR  (light rain, mist)
SOME DATA ABOVE MAY BE INACCURATE!!!
"$" is an indication the sensor requires maintenance

Forecast for: PASD (SAND POINT , AK, US)
Text: PASD 250535Z 2506/2606 15010KT 2SM -RA BR BKN003
Forecast period: 0600 to 0900 UTC 25 March 2019
Forecast type: FROM: standard forecast or significant change
Winds: from the SSE (150 degrees) at 12 MPH (10 knots; 5.1 m/s)
Visibility: 2.00 miles (3.22 km)
Ceiling: 300 feet AGL
Clouds: broken clouds at 300 feet AGL
Weather: -RA BR  (light rain, mist)
Text: FM250900 16015G25KT 6SM BR VCSH SCT010 BKN020
Forecast period: 0900 UTC 25 March 2019 to 0000 UTC 26 March 2019
Forecast type: FROM: standard forecast or significant change
Winds: from the SSE (160 degrees) at 17 MPH (15 knots; 7.7 m/s)
gusting to 29 MPH (25 knots; 12.9 m/s)
Visibility: 6 miles (10 km)
Ceiling: 2000 feet AGL
Clouds: scattered clouds at 1000 feet AGL
broken clouds at 2000 feet AGL
Weather: BR VCSH  (mist, showers in vicinity)
Text: FM260000 17013G21KT 5SM -RA BR OVC007 AMD LTD TO CLD VIS AND WIND
Forecast period: 0000 to 0600 UTC 26 March 2019
Forecast type: FROM: standard forecast or significant change
Winds: from the S (170 degrees) at 15 MPH (13 knots; 6.7 m/s)
gusting to 24 MPH (21 knots; 10.8 m/s)
Visibility: 5 miles (8 km)
Ceiling: 700 feet AGL
Clouds: overcast cloud deck at 700 feet AGL
Weather: -RA BR  (light rain, mist)


 MAPA DO AEROPORTO


 INFORMAÇÕES DA PISTA

Pista 13 Tamanho da pista 4000 ft Largura da pista 150 ft
Elevação da pista 21 ft Ranhura da pista 0 ft Proa da pista 149
Pista 31 Tamanho da pista 4000 ft Largura da pista 150 ft
Elevação da pista 21 ft Ranhura da pista 0 ft Proa da pista 329

 FREQUÊNCIAS DO AEROPORTO

Tipo AWOS Nome AWOS 3 Frequência 134.85 MHZ
Tipo CLD Nome CLNC DEL Frequência 122.3 MHZ
Tipo CNTR Nome ANCHORAGE Frequência 125.35 MHZ
Tipo CTAF Nome CTAF Frequência 122.3 MHZ
Tipo FSS Nome COLD BAY R Frequência 122.3 MHZ
Tipo UNIC Nome UNICOM Frequência 122.8 MHZ

 AUXÍLIOS DE NAVEGAÇÃO PRÓXIMOS AO AEROPORTO

Tipo NDB-DME Nome Borland Frequência 390 KHZ